Time;durP1;ratioP1;P1;durP2;ratioP2;P2;SDS_P1;SDS_P2;PMS_P1;PMS_P2;Temp;Humidity;BMP_temperature;BMP_pressure;BME280_temperature;BME280_humidity;BME280_pressure;Samples;Min_cycle;Max_cycle;Signal;HPM_P1;HPM_P2
2022/02/15 00:00:38;;;;;;;12.73;4.10;;;;;;;8.21;83.71;100544.50;4977210;28;20042;-44
2022/02/15 00:03:06;;;;;;;10.73;3.50;;;;;;;8.18;83.42;100545.00;4994734;28;20043;-45
2022/02/15 00:05:34;;;;;;;9.95;3.58;;;;;;;8.14;83.25;100547.41;4977869;28;20093;-45
2022/02/15 00:08:02;;;;;;;7.57;3.35;;;;;;;8.15;83.32;100553.66;4977336;28;20053;-44
2022/02/15 00:10:30;;;;;;;9.95;3.65;;;;;;;8.13;83.89;100547.66;4994347;28;20046;-44
2022/02/15 00:13:02;;;;;;;14.13;3.85;;;;;;;8.13;83.60;100542.25;4977092;28;20047;-43
2022/02/15 00:15:30;;;;;;;8.30;3.75;;;;;;;8.12;84.15;100555.00;4994900;28;20104;-44
2022/02/15 00:17:58;;;;;;;9.27;3.38;;;;;;;8.09;83.79;100553.63;4977499;28;20057;-45
2022/02/15 00:20:27;;;;;;;9.10;3.30;;;;;;;8.06;83.67;100556.84;4977301;28;20058;-47
2022/02/15 00:22:56;;;;;;;8.60;3.35;;;;;;;8.05;83.99;100568.78;4994470;28;20147;-49
2022/02/15 00:25:24;;;;;;;10.70;3.60;;;;;;;8.06;83.46;100566.91;4994580;28;20053;-45
2022/02/15 00:27:53;;;;;;;7.57;2.63;;;;;;;8.04;83.21;100572.56;4994283;28;20046;-44
2022/02/15 00:30:21;;;;;;;9.13;2.90;;;;;;;8.01;83.23;100573.09;4993962;28;20049;-45
2022/02/15 00:32:51;;;;;;;7.00;2.97;;;;;;;8.04;83.36;100578.00;4976833;28;20057;-44
2022/02/15 00:35:19;;;;;;;11.80;3.47;;;;;;;8.05;83.42;100585.06;4977391;28;20107;-44
2022/02/15 00:37:48;;;;;;;8.23;3.55;;;;;;;8.06;83.52;100583.19;4994145;28;20417;-44
2022/02/15 00:40:16;;;;;;;6.93;2.78;;;;;;;8.02;82.82;100582.84;4958177;28;20073;-42
2022/02/15 00:42:44;;;;;;;9.07;2.90;;;;;;;7.97;82.82;100585.53;4966138;28;20049;-41
2022/02/15 00:45:12;;;;;;;7.95;3.05;;;;;;;7.96;83.00;100589.34;4976959;28;20523;-42
2022/02/15 00:47:39;;;;;;;7.30;3.33;;;;;;;7.97;83.16;100588.25;4994261;28;20056;-41
2022/02/15 00:50:09;;;;;;;11.90;3.70;;;;;;;7.99;83.52;100591.53;4993794;28;20539;-41
2022/02/15 00:52:37;;;;;;;7.13;2.60;;;;;;;7.98;82.63;100595.28;4993713;28;20134;-44
2022/02/15 00:55:07;;;;;;;7.03;3.08;;;;;;;7.95;83.60;100598.53;4975690;28;20112;-43
2022/02/15 00:57:36;;;;;;;10.90;3.47;;;;;;;7.98;84.00;100597.19;4993860;28;20042;-44
2022/02/15 01:00:05;;;;;;;8.93;3.03;;;;;;;8.00;82.98;100603.19;4942294;28;20114;-44
2022/02/15 01:02:33;;;;;;;8.75;3.10;;;;;;;7.98;83.01;100597.19;4958009;28;20085;-45
2022/02/15 01:05:01;;;;;;;7.78;3.00;;;;;;;7.96;83.00;100602.91;4957263;28;20097;-44
2022/02/15 01:07:30;;;;;;;5.65;2.88;;;;;;;7.94;83.25;100596.91;4941291;28;20053;-44
2022/02/15 01:09:58;;;;;;;6.30;2.90;;;;;;;7.93;83.47;100602.56;4957192;28;20129;-46
2022/02/15 01:12:26;;;;;;;9.00;3.30;;;;;;;7.94;83.46;100610.47;4976796;28;20119;-46
2022/02/15 01:14:54;;;;;;;8.52;3.50;;;;;;;7.95;83.57;100612.09;4993744;28;20074;-45
2022/02/15 01:17:22;;;;;;;9.43;3.40;;;;;;;7.98;83.53;100611.56;4976031;28;20042;-45
2022/02/15 01:19:50;;;;;;;6.38;2.60;;;;;;;7.95;83.60;100609.38;4961099;28;20074;-46
2022/02/15 01:22:18;;;;;;;8.07;3.15;;;;;;;7.97;83.88;100609.13;4976251;28;20042;-44
2022/02/15 01:24:46;;;;;;;6.72;2.70;;;;;;;7.97;83.63;100620.78;4993782;28;20053;-43
2022/02/15 01:27:14;;;;;;;8.07;3.10;;;;;;;7.94;83.97;100615.88;4993740;28;20050;-45
2022/02/15 01:29:42;;;;;;;7.72;3.03;;;;;;;7.96;84.32;100624.59;4975554;28;20053;-43
2022/02/15 01:32:09;;;;;;;8.77;3.15;;;;;;;7.99;83.34;100626.78;4977515;28;20060;-44
2022/02/15 01:34:37;;;;;;;8.23;3.22;;;;;;;8.00;83.23;100631.13;4980584;28;20042;-43
2022/02/15 01:37:07;;;;;;;7.57;3.08;;;;;;;8.00;83.51;100619.47;4979921;28;20050;-44
2022/02/15 01:39:34;;;;;;;6.75;2.50;;;;;;;8.01;84.07;100630.06;4980197;28;20043;-44
2022/02/15 01:42:02;;;;;;;8.70;3.38;;;;;;;8.02;83.36;100633.59;4982126;28;20125;-43
2022/02/15 01:44:32;;;;;;;7.25;2.70;;;;;;;8.00;83.64;100644.69;4963808;28;20074;-43
2022/02/15 01:47:05;;;;;;;7.45;2.60;;;;;;;8.01;83.55;100645.50;4980368;28;20058;-44
2022/02/15 01:49:34;;;;;;;6.95;2.70;;;;;;;8.01;83.56;100646.34;4979319;28;20051;-45
2022/02/15 01:52:02;;;;;;;5.57;2.67;;;;;;;8.00;83.13;100647.41;4979654;28;20081;-44
2022/02/15 01:54:30;;;;;;;7.05;2.90;;;;;;;8.02;83.42;100647.97;4979962;28;20076;-44
2022/02/15 01:56:58;;;;;;;7.97;3.00;;;;;;;8.02;83.67;100647.97;4979834;28;20082;-43
2022/02/15 01:59:27;;;;;;;5.15;2.50;;;;;;;8.01;83.84;100643.63;4963361;28;20057;-46
2022/02/15 02:01:58;;;;;;;7.20;2.78;;;;;;;8.00;83.62;100654.72;4979720;28;20046;-44
2022/02/15 02:07:13;;;;;;;9.02;2.90;;;;;;;8.01;83.42;100654.50;4979676;28;20054;-45
2022/02/15 02:09:41;;;;;;;6.97;2.80;;;;;;;8.01;83.89;100659.91;4978998;28;20042;-45
2022/02/15 02:12:11;;;;;;;5.10;2.72;;;;;;;8.02;83.59;100658.00;4979784;28;20086;-44
2022/02/15 02:15:09;;;;;;;7.10;3.10;;;;;;;8.01;83.93;100653.66;4965059;28;20422;-44
2022/02/15 02:18:03;;;;;;;8.00;2.90;;;;;;;7.99;83.63;100655.81;4996285;28;20039;-45
2022/02/15 02:20:33;;;;;;;9.48;3.55;;;;;;;7.96;84.60;100656.31;4979217;28;20050;-46
2022/02/15 02:23:02;;;;;;;6.75;3.00;;;;;;;7.95;84.73;100660.91;4979442;28;20050;-46
2022/02/15 02:25:30;;;;;;;7.65;3.10;;;;;;;7.93;84.54;100657.63;4963593;28;20077;-43
2022/02/15 02:27:59;;;;;;;8.30;3.17;;;;;;;7.92;84.94;100669.56;4979007;28;20105;-44
2022/02/15 02:30:27;;;;;;;6.38;2.60;;;;;;;7.90;84.61;100663.59;4979846;28;20046;-43
2022/02/15 02:32:58;;;;;;;9.10;3.30;;;;;;;7.89;85.30;100664.66;4979536;28;20046;-44
2022/02/15 02:35:26;;;;;;;6.68;2.92;;;;;;;7.88;85.05;100671.97;4979096;28;20046;-42
2022/02/15 02:37:54;;;;;;;8.30;3.10;;;;;;;7.88;84.59;100682.00;4959494;28;20042;-44
2022/02/15 02:40:23;;;;;;;9.43;3.30;;;;;;;7.90;84.75;100674.44;4962340;28;20065;-44
2022/02/15 02:42:51;;;;;;;6.68;2.63;;;;;;;7.92;84.81;100682.31;4995886;28;20054;-45
2022/02/15 02:45:23;;;;;;;8.27;2.88;;;;;;;7.92;85.15;100687.75;4995226;28;20101;-43
2022/02/15 02:47:52;;;;;;;8.32;3.10;;;;;;;7.90;85.05;100696.13;4995890;28;20046;-44
2022/02/15 02:50:24;;;;;;;6.35;2.88;;;;;;;7.90;85.44;100688.00;4978728;28;20042;-46
2022/02/15 02:52:53;;;;;;;8.60;2.90;;;;;;;7.91;85.35;100681.47;4963146;28;20038;-44
2022/02/15 02:55:25;;;;;;;4.65;2.55;;;;;;;7.93;85.13;100689.38;4978647;28;20162;-42
2022/02/15 02:57:54;;;;;;;10.07;3.35;;;;;;;7.94;84.70;100693.72;4978770;28;20484;-40
2022/02/15 03:00:22;;;;;;;7.63;3.47;;;;;;;7.94;85.40;100696.44;4943510;28;20054;-41
2022/02/15 03:03:07;;;;;;;7.45;3.15;;;;;;;7.93;85.01;100689.38;4959214;28;20138;-45
2022/02/15 03:05:38;;;;;;;10.23;3.88;;;;;;;7.90;85.26;100683.38;4943152;28;20402;-43
2022/02/15 03:08:06;;;;;;;10.07;3.47;;;;;;;7.89;85.87;100689.09;4975243;28;20051;-42
2022/02/15 03:10:34;;;;;;;9.63;3.65;;;;;;;7.87;85.74;100692.03;4974814;28;20038;-41
2022/02/15 03:13:05;;;;;;;10.15;3.97;;;;;;;7.87;86.33;100699.38;4942998;28;20050;-43
2022/02/15 03:15:32;;;;;;;9.95;3.97;;;;;;;7.85;86.29;100698.78;4959232;28;20047;-41
2022/02/15 03:18:03;;;;;;;9.60;4.00;;;;;;;7.84;85.82;100706.13;4975391;28;20049;-42
2022/02/15 03:20:31;;;;;;;9.63;4.38;;;;;;;7.83;86.83;100704.47;4974884;28;20474;-41
2022/02/15 03:22:59;;;;;;;11.70;3.97;;;;;;;7.83;86.66;100703.66;4967005;28;20049;-41
2022/02/15 03:25:28;;;;;;;10.57;4.32;;;;;;;7.83;86.21;100700.94;4975057;28;20054;-42
2022/02/15 03:27:56;;;;;;;10.57;4.45;;;;;;;7.81;87.22;100697.66;4958568;28;20046;-42
2022/02/15 03:30:27;;;;;;;10.27;4.72;;;;;;;7.79;87.37;100713.34;4958866;28;20053;-45
2022/02/15 03:32:55;;;;;;;10.50;5.20;;;;;;;7.79;86.98;100718.78;4960546;28;20077;-42
2022/02/15 03:35:24;;;;;;;11.35;4.90;;;;;;;7.77;87.24;100713.63;4977785;28;20050;-45
2022/02/15 03:38:00;;;;;;;12.30;4.93;;;;;;;7.80;87.37;100712.28;4959654;28;20058;-41
2022/02/15 03:43:20;;;;;;;14.10;5.28;;;;;;;7.84;87.82;100729.69;4973927;28;20442;-43
2022/02/15 03:45:49;;;;;;;12.35;5.50;;;;;;;7.83;88.46;100733.47;4974489;28;20089;-43
2022/02/15 03:48:25;;;;;;;10.57;4.53;;;;;;;7.82;88.29;100738.09;4958388;28;20410;-43
2022/02/15 03:50:53;;;;;;;11.73;4.93;;;;;;;7.81;88.27;100741.84;4974404;28;20050;-44
2022/02/15 03:53:21;;;;;;;10.55;5.07;;;;;;;7.84;88.63;100745.97;4958058;28;20046;-45
2022/02/15 03:55:49;;;;;;;11.23;4.68;;;;;;;7.84;87.81;100751.38;4973771;28;20137;-44
2022/02/15 03:58:18;;;;;;;11.23;4.60;;;;;;;7.84;88.31;100746.81;4960939;28;20050;-42
2022/02/15 04:00:46;;;;;;;10.75;5.40;;;;;;;7.83;88.03;100741.63;4978951;28;20125;-42
2022/02/15 04:03:24;;;;;;;10.88;5.40;;;;;;;7.83;87.88;100757.91;4978009;28;20050;-42
2022/02/15 04:05:54;;;;;;;11.18;5.63;;;;;;;7.81;88.68;100749.19;4958199;28;20043;-42
2022/02/15 04:08:23;;;;;;;9.02;5.00;;;;;;;7.81;88.35;100766.28;4957984;28;20046;-43
2022/02/15 04:10:51;;;;;;;11.60;5.72;;;;;;;7.81;88.54;100768.16;4926414;28;20075;-43
2022/02/15 04:13:25;;;;;;;11.18;6.40;;;;;;;7.80;88.79;100767.34;4982140;28;20101;-44
2022/02/15 04:15:53;;;;;;;12.82;6.28;;;;;;;7.78;88.76;100766.78;4977082;28;20046;-43
2022/02/15 04:18:22;;;;;;;12.63;5.45;;;;;;;7.80;88.58;100771.97;4977411;28;20042;-43
2022/02/15 04:20:50;;;;;;;12.35;6.40;;;;;;;7.72;89.82;100778.66;4994419;28;20046;-44
2022/02/15 04:23:18;;;;;;;9.45;5.30;;;;;;;7.73;89.56;100776.75;4992882;28;20100;-43
2022/02/15 04:25:46;;;;;;;10.02;5.40;;;;;;;7.73;89.75;100782.16;4976953;28;20039;-43
2022/02/15 04:28:29;;;;;;;8.23;4.78;;;;;;;7.76;89.43;100781.66;4976850;28;20088;-43
2022/02/15 04:30:59;;;;;;;11.25;6.22;;;;;;;7.76;89.99;100778.94;4961020;28;20046;-44
2022/02/15 04:33:27;;;;;;;11.52;6.00;;;;;;;7.78;89.42;100784.94;4960789;28;20096;-44
2022/02/15 04:35:55;;;;;;;15.32;7.53;;;;;;;7.77;89.16;100789.56;4976882;28;20058;-45
2022/02/15 04:38:23;;;;;;;12.07;7.18;;;;;;;7.74;89.71;100800.88;4960949;28;20042;-45
2022/02/15 04:40:56;;;;;;;12.55;6.97;;;;;;;7.73;89.69;100793.84;4977247;28;20096;-46
2022/02/15 04:43:27;;;;;;;14.30;7.60;;;;;;;7.73;90.30;100801.16;4976477;28;20121;-44
2022/02/15 04:45:56;;;;;;;14.77;7.40;;;;;;;7.66;89.86;100802.13;4976501;28;20475;-44
2022/02/15 04:48:25;;;;;;;12.85;7.63;;;;;;;7.63;90.83;100802.66;4960619;28;20054;-47
2022/02/15 04:50:54;;;;;;;10.77;7.47;;;;;;;7.59;90.66;100812.34;4976763;28;20119;-44
2022/02/15 04:53:22;;;;;;;13.70;7.70;;;;;;;7.60;90.37;100815.88;4960401;28;20046;-45
2022/02/15 04:55:50;;;;;;;13.88;7.65;;;;;;;7.59;90.60;100817.75;4944917;28;20047;-45
2022/02/15 04:58:18;;;;;;;10.23;6.68;;;;;;;7.60;90.53;100819.41;4976316;28;20062;-47
2022/02/15 05:00:48;;;;;;;14.27;6.72;;;;;;;7.62;90.57;100825.38;4976737;28;20073;-47
2022/02/15 05:03:22;;;;;;;12.50;7.22;;;;;;;7.62;90.86;100827.28;4976415;28;20062;-48
2022/02/15 05:05:56;;;;;;;11.80;6.55;;;;;;;7.62;91.05;100825.38;4976843;28;20046;-46
2022/02/15 05:08:25;;;;;;;11.48;6.65;;;;;;;7.62;90.89;100827.28;4975914;28;20054;-48
2022/02/15 05:10:59;;;;;;;13.65;7.72;;;;;;;7.61;91.51;100821.06;4961969;28;20053;-46
2022/02/15 05:13:35;;;;;;;10.63;6.20;;;;;;;7.64;91.19;100825.97;4975991;28;20058;-44
2022/02/15 05:16:10;;;;;;;13.15;7.13;;;;;;;7.63;90.57;100827.06;4976276;28;20085;-46
2022/02/15 05:18:48;;;;;;;13.48;6.15;;;;;;;7.64;90.91;100831.38;4976457;28;20061;-45
2022/02/15 05:21:21;;;;;;;13.38;7.53;;;;;;;7.65;90.89;100834.94;4961274;28;20051;-45
2022/02/15 05:23:58;;;;;;;9.68;6.03;;;;;;;7.64;91.49;100834.09;4996120;28;20049;-45
2022/02/15 05:26:38;;;;;;;15.32;7.60;;;;;;;7.62;91.03;100825.38;4981418;28;20060;-45
2022/02/15 05:29:08;;;;;;;10.43;5.78;;;;;;;7.62;91.02;100833.53;4995593;28;20049;-44
2022/02/15 05:31:46;;;;;;;;;;;;;;;7.65;90.77;100830.34;4983546;28;20041;-40
2022/02/15 05:34:14;;;;;;;13.18;7.38;;;;;;;7.63;91.03;100840.59;4996116;28;19976;-41
2022/02/15 05:36:42;;;;;;;8.68;4.75;;;;;;;7.65;90.71;100843.91;5013080;28;20066;-41
2022/02/15 05:39:13;;;;;;;15.77;8.02;;;;;;;7.60;91.62;100838.41;4995527;28;20038;-40
2022/02/15 05:41:50;;;;;;;13.13;6.60;;;;;;;7.60;91.64;100848.41;4995291;28;20048;-42
2022/02/15 05:44:19;;;;;;;14.85;7.70;;;;;;;7.61;91.79;100845.44;4995480;28;20129;-45
2022/02/15 05:46:47;;;;;;;12.63;7.53;;;;;;;7.60;91.28;100849.25;4995500;28;20046;-44
2022/02/15 05:49:14;;;;;;;12.80;7.65;;;;;;;7.61;91.55;100850.88;4995366;28;20068;-41
2022/02/15 05:51:46;;;;;;;17.52;8.05;;;;;;;7.59;91.72;100850.31;4995060;28;20045;-47
2022/02/15 05:54:17;;;;;;;17.50;8.40;;;;;;;7.63;91.27;100848.75;4979139;28;20053;-42
2022/02/15 05:56:47;;;;;;;15.23;7.43;;;;;;;7.59;91.47;100855.72;4995267;28;20080;-42
2022/02/15 05:59:33;;;;;;;11.25;6.85;;;;;;;7.58;91.99;100853.28;4994847;28;20057;-42
2022/02/15 06:02:11;;;;;;;12.75;7.57;;;;;;;7.59;92.11;100850.31;4980482;28;20049;-43
2022/02/15 06:04:48;;;;;;;15.93;7.97;;;;;;;7.56;92.07;100853.50;4995284;28;20057;-42
2022/02/15 06:07:20;;;;;;;13.98;8.05;;;;;;;7.54;92.77;100858.34;4995348;28;20054;-44
2022/02/15 06:09:48;;;;;;;14.98;6.07;;;;;;;7.56;92.22;100853.50;4995116;28;20077;-43
2022/02/15 06:12:16;;;;;;;10.45;6.25;;;;;;;7.56;92.27;100858.94;4994827;28;20487;-43
2022/02/15 06:14:56;;;;;;;9.52;5.72;;;;;;;7.59;92.28;100866.56;4995501;28;20100;-41
2022/02/15 06:17:24;;;;;;;13.65;7.00;;;;;;;7.58;92.46;100862.22;4995262;28;20042;-42
2022/02/15 06:19:53;;;;;;;14.60;7.32;;;;;;;7.55;92.76;100860.03;4998652;28;20077;-42
2022/02/15 06:22:31;;;;;;;17.77;7.82;;;;;;;7.52;93.08;100855.06;4983742;28;20077;-44
2022/02/15 06:25:00;;;;;;;15.05;6.57;;;;;;;7.58;93.17;100862.22;4307686;28;10000471;-43
2022/02/15 06:27:40;;;;;;;19.13;9.00;;;;;;;7.53;93.72;100874.84;4995860;28;20054;-44
2022/02/15 06:30:14;;;;;;;21.70;8.52;;;;;;;7.41;93.90;100866.84;4995147;28;20045;-41
2022/02/15 06:32:49;;;;;;;14.65;8.02;;;;;;;7.37;94.62;100873.81;4995372;28;20049;-45
2022/02/15 06:35:21;;;;;;;17.08;7.90;;;;;;;7.30;95.13;100883.97;4996451;28;20053;-48
2022/02/15 06:37:56;;;;;;;16.88;8.15;;;;;;;7.25;96.04;100879.28;4995928;28;20049;-42
2022/02/15 06:40:26;;;;;;;17.00;9.40;;;;;;;7.23;96.38;100893.06;4995616;28;20129;-40
2022/02/15 06:42:57;;;;;;;13.25;7.40;;;;;;;7.28;96.06;100888.81;4995054;28;20078;-43
2022/02/15 06:45:26;;;;;;;15.32;8.10;;;;;;;7.33;95.59;100900.56;4995440;28;20050;-44
2022/02/15 06:47:53;;;;;;;14.00;7.70;;;;;;;7.41;95.28;100902.06;4995189;28;20085;-46
2022/02/15 06:50:21;;;;;;;11.23;6.82;;;;;;;7.39;95.65;100899.59;4978469;28;20054;-43
2022/02/15 06:52:52;;;;;;;14.52;7.07;;;;;;;7.49;95.66;100901.66;5012186;28;20053;-46
2022/02/15 06:56:09;;;;;;;15.83;7.70;;;;;;;7.41;95.13;100900.19;4995710;28;20077;-46
2022/02/15 06:58:41;;;;;;;16.85;7.68;;;;;;;7.43;95.42;100902.63;4996732;28;20062;-43
2022/02/15 07:01:12;;;;;;;16.85;7.20;;;;;;;7.47;94.80;100903.78;4982495;28;20049;-42
2022/02/15 07:03:40;;;;;;;15.15;7.95;;;;;;;7.49;95.13;100909.78;4982056;28;20111;-42
2022/02/15 07:06:08;;;;;;;13.90;6.25;;;;;;;7.47;95.26;100903.78;4998172;28;20053;-43
2022/02/15 07:08:36;;;;;;;16.35;8.07;;;;;;;7.49;94.69;100914.41;5014943;28;20042;-44
2022/02/15 07:11:05;;;;;;;14.10;6.95;;;;;;;7.47;94.69;100920.06;4997052;28;20053;-44
2022/02/15 07:13:35;;;;;;;17.63;8.18;;;;;;;7.49;94.62;100917.94;4997327;28;20045;-43
2022/02/15 07:16:06;;;;;;;15.35;8.05;;;;;;;7.43;94.80;100929.72;4997594;28;20049;-44
2022/02/15 07:18:34;;;;;;;15.13;6.80;;;;;;;7.42;95.30;100934.34;4997334;28;20165;-44
2022/02/15 07:21:15;;;;;;;16.77;7.50;;;;;;;7.42;95.02;100938.94;5014478;28;20069;-43
2022/02/15 07:24:04;;;;;;;12.27;6.93;;;;;;;7.41;95.70;100932.72;5000363;28;20129;-47
2022/02/15 07:26:50;;;;;;;16.80;7.85;;;;;;;7.42;95.40;100938.94;5014596;28;20125;-46
2022/02/15 07:29:26;;;;;;;12.98;6.53;;;;;;;7.44;96.13;100942.25;4981438;28;20054;-45
2022/02/15 07:32:12;;;;;;;17.10;7.75;;;;;;;7.46;96.20;100953.66;5000000;28;20045;-46
2022/02/15 07:34:43;;;;;;;16.70;8.07;;;;;;;7.45;95.91;100952.00;4997158;28;20092;-41
2022/02/15 07:37:11;;;;;;;17.45;8.40;;;;;;;7.45;95.74;100962.84;5014591;28;20046;-42
2022/02/15 07:39:39;;;;;;;20.52;8.23;;;;;;;7.47;96.34;100955.28;5014481;28;20070;-43
2022/02/15 07:42:07;;;;;;;16.98;7.60;;;;;;;7.52;95.69;100960.81;5014282;28;20448;-44
2022/02/15 07:44:42;;;;;;;15.68;8.40;;;;;;;7.53;95.33;100956.19;4997161;28;20077;-44
2022/02/15 07:47:11;;;;;;;15.25;8.20;;;;;;;7.49;95.37;100964.00;5014342;28;20062;-43
2022/02/15 07:49:39;;;;;;;16.70;8.45;;;;;;;7.48;96.18;100962.38;4998898;28;20432;-43
2022/02/15 07:52:06;;;;;;;16.70;7.95;;;;;;;7.47;95.68;100969.66;5004338;28;20046;-42
2022/02/15 07:54:37;;;;;;;19.95;8.50;;;;;;;7.49;95.77;100971.31;5014392;28;20049;-42
2022/02/15 07:57:06;;;;;;;18.45;8.50;;;;;;;7.47;95.46;100969.66;5014159;28;20096;-46
2022/02/15 07:59:34;;;;;;;35.90;9.77;;;;;;;7.52;96.23;100973.53;5000612;28;20097;-45
2022/02/15 08:02:02;;;;;;;18.52;8.20;;;;;;;7.53;95.37;100984.16;4994252;28;20038;-44
2022/02/15 08:04:31;;;;;;;16.65;8.10;;;;;;;7.59;95.23;100985.88;4977101;28;20054;-43
2022/02/15 08:07:03;;;;;;;15.15;8.15;;;;;;;7.68;94.88;100975.47;4977029;28;20046;-44
2022/02/15 08:09:32;;;;;;;17.85;8.50;;;;;;;7.57;95.21;100985.28;4994422;28;20515;-43
2022/02/15 08:12:08;;;;;;;18.50;8.07;;;;;;;7.45;95.99;101000.81;4994026;28;20042;-47
2022/02/15 08:14:36;;;;;;;14.90;7.93;;;;;;;7.39;96.12;100993.66;4958231;28;20085;-48
2022/02/15 08:17:06;;;;;;;21.33;7.57;;;;;;;7.45;96.03;101003.50;4974937;28;20051;-43
2022/02/15 08:19:33;;;;;;;19.35;6.72;;;;;;;7.47;95.72;101009.50;4957782;28;20054;-46
2022/02/15 08:22:02;;;;;;;20.08;7.45;;;;;;;7.51;96.23;101010.69;4974729;28;20054;-46
2022/02/15 08:24:30;;;;;;;19.83;7.57;;;;;;;7.57;96.45;101001.56;4992162;28;20050;-43
2022/02/15 08:26:58;;;;;;;17.60;7.00;;;;;;;7.61;95.59;101002.72;4993989;28;20042;-42
2022/02/15 08:29:25;;;;;;;15.88;6.97;;;;;;;7.59;94.55;101004.84;4993409;28;20081;-42
2022/02/15 08:31:53;;;;;;;16.60;6.60;;;;;;;7.64;94.68;101007.66;4994787;28;20084;-42
2022/02/15 08:34:21;;;;;;;17.77;6.60;;;;;;;7.60;94.53;101002.97;4977323;28;20074;-42
2022/02/15 08:36:48;;;;;;;15.10;6.10;;;;;;;7.61;94.40;101015.47;4960586;28;20520;-43
2022/02/15 08:39:16;;;;;;;16.27;6.30;;;;;;;7.63;94.23;101006.03;4647557;28;9999910;-44
2022/02/15 08:41:44;;;;;;;18.23;6.78;;;;;;;7.62;94.67;101009.78;4974066;28;20484;-42
2022/02/15 08:44:12;;;;;;;13.38;5.50;;;;;;;7.64;94.62;101013.09;4991933;28;20046;-42
2022/02/15 08:46:40;;;;;;;15.95;6.22;;;;;;;7.60;94.43;101021.94;4993977;28;20501;-42
2022/02/15 08:49:08;;;;;;;13.88;5.85;;;;;;;7.58;94.03;101024.09;4993485;28;20042;-41
2022/02/15 08:51:38;;;;;;;19.52;5.97;;;;;;;7.56;94.40;101027.03;4993815;28;20085;-41
2022/02/15 08:54:06;;;;;;;16.27;6.72;;;;;;;7.63;94.63;101027.72;4992120;28;20046;-45
2022/02/15 08:56:39;;;;;;;14.27;5.35;;;;;;;7.58;94.84;101024.91;4993223;28;20042;-46
2022/02/15 08:59:06;;;;;;;14.77;5.30;;;;;;;7.58;93.97;101027.63;4988587;28;20050;-45
2022/02/15 09:01:34;;;;;;;12.15;4.93;;;;;;;7.59;94.42;101037.41;4993434;28;20085;-45
2022/02/15 09:04:02;;;;;;;11.52;4.60;;;;;;;7.59;93.31;101031.16;4993258;28;20038;-45
2022/02/15 09:06:36;;;;;;;12.88;4.55;;;;;;;7.65;93.72;101039.16;4993535;28;20057;-45
2022/02/15 09:09:13;;;;;;;13.93;4.55;;;;;;;7.61;93.66;101037.97;4993115;28;20049;-46
2022/02/15 09:11:42;;;;;;;28.05;6.35;;;;;;;7.65;92.75;101036.44;4993343;28;20129;-44
2022/02/15 09:14:13;;;;;;;13.65;4.70;;;;;;;7.58;92.58;101032.25;4993053;28;20089;-43
2022/02/15 09:16:41;;;;;;;17.63;5.35;;;;;;;7.52;92.51;101031.28;4957029;28;20086;-44
2022/02/15 09:19:09;;;;;;;13.00;4.70;;;;;;;7.51;92.64;101034.28;4974048;28;20046;-43
2022/02/15 09:21:37;;;;;;;14.70;4.63;;;;;;;7.45;92.73;101030.63;4974219;28;20054;-47
2022/02/15 09:24:05;;;;;;;17.58;5.00;;;;;;;7.55;92.30;101041.69;4973413;28;20102;-46
2022/02/15 09:26:33;;;;;;;25.90;7.22;;;;;;;7.72;94.77;101039.00;4989930;28;20065;-43
2022/02/15 09:29:01;;;;;;;13.32;4.78;;;;;;;7.69;91.30;101037.56;4993141;28;20074;-46
2022/02/15 09:31:29;;;;;;;15.88;4.68;;;;;;;7.66;90.27;101032.66;4993813;28;20046;-44
2022/02/15 09:33:57;;;;;;;14.32;4.60;;;;;;;7.69;89.64;101042.19;4993612;28;20080;-45
2022/02/15 09:36:26;;;;;;;17.02;4.63;;;;;;;7.67;89.81;101037.03;4992998;28;20080;-45
2022/02/15 09:38:55;;;;;;;14.68;4.68;;;;;;;7.66;89.05;101048.91;4993294;28;20047;-44
2022/02/15 09:41:22;;;;;;;12.70;4.45;;;;;;;7.71;87.41;101044.66;4976422;28;20054;-43
2022/02/15 09:43:51;;;;;;;18.95;6.10;;;;;;;7.94;91.65;101052.69;4976659;28;20043;-42
2022/02/15 09:46:19;;;;;;;18.70;6.18;;;;;;;8.08;90.78;101043.16;4975938;28;20049;-46
2022/02/15 09:48:46;;;;;;;12.48;4.15;;;;;;;8.02;86.50;101052.28;4993842;28;20488;-42
2022/02/15 09:51:16;;;;;;;13.60;4.65;;;;;;;8.18;86.00;101056.06;4993589;28;20430;-43
2022/02/15 09:53:44;;;;;;;14.20;4.00;;;;;;;8.08;82.91;101054.00;4995441;28;20092;-46
2022/02/15 09:56:11;;;;;;;15.27;3.85;;;;;;;7.94;82.13;101058.13;4996999;28;20057;-43
2022/02/15 09:58:39;;;;;;;13.35;3.60;;;;;;;7.81;81.20;101066.53;4996388;28;20105;-44
2022/02/15 10:01:09;;;;;;;13.85;3.83;;;;;;;7.72;80.95;101063.41;4997303;28;20140;-41
2022/02/15 10:03:47;;;;;;;15.32;4.22;;;;;;;7.76;82.53;101069.16;4979111;28;20074;-44
2022/02/15 10:06:15;;;;;;;15.13;4.05;;;;;;;7.82;82.06;101076.34;4998023;28;20054;-45
2022/02/15 10:08:44;;;;;;;17.63;4.25;;;;;;;7.78;81.93;101070.56;4997247;28;20047;-47
2022/02/15 10:11:13;;;;;;;15.55;4.28;;;;;;;7.80;83.02;101064.91;4996523;28;20142;-43
2022/02/15 10:13:43;;;;;;;14.93;4.30;;;;;;;7.85;83.59;101062.28;4996738;28;20044;-46
2022/02/15 10:16:13;;;;;;;15.95;4.72;;;;;;;7.85;81.84;101046.81;4996539;28;20052;-45
2022/02/15 10:18:42;;;;;;;12.73;4.15;;;;;;;7.88;82.07;101069.94;4996718;28;20053;-46
2022/02/15 10:21:16;;;;;;;14.20;4.47;;;;;;;7.90;80.67;101060.47;4996561;28;20050;-45
2022/02/15 10:23:51;;;;;;;12.32;4.40;;;;;;;7.98;80.77;101061.97;4979834;28;20445;-46
2022/02/15 10:26:19;;;;;;;13.43;3.85;;;;;;;7.98;78.87;101056.53;4979463;28;20050;-46
2022/02/15 10:28:47;;;;;;;10.90;4.25;;;;;;;8.11;79.74;101064.38;4978998;28;20133;-42
2022/02/15 10:31:15;;;;;;;13.18;4.47;;;;;;;8.13;78.61;101068.72;4996597;28;20132;-44
2022/02/15 10:33:47;;;;;;;12.48;4.25;;;;;;;8.13;78.36;101074.16;4962865;28;20401;-44
2022/02/15 10:36:16;;;;;;;10.93;3.72;;;;;;;8.13;76.62;101066.00;4978568;28;20038;-46
2022/02/15 10:38:49;;;;;;;15.98;5.93;;;;;;;8.50;84.01;101069.91;4996180;28;20038;-42
2022/02/15 10:41:23;;;;;;;12.23;4.72;;;;;;;8.46;78.32;101068.75;4978535;28;20050;-47
2022/02/15 10:43:56;;;;;;;12.35;3.83;;;;;;;8.30;76.35;101075.00;4975654;28;20062;-45
2022/02/15 10:46:29;;;;;;;19.05;6.22;;;;;;;8.39;80.40;101068.06;4965887;28;20054;-44
2022/02/15 10:48:57;;;;;;;11.73;3.92;;;;;;;8.43;75.87;101058.41;4996397;28;20090;-42
2022/02/15 10:51:26;;;;;;;14.45;5.25;;;;;;;8.43;78.50;101052.97;4995625;28;20112;-40
2022/02/15 10:53:58;;;;;;;11.10;3.42;;;;;;;8.45;74.47;101058.97;4996176;28;20464;-47
2022/02/15 10:56:32;;;;;;;11.75;3.30;;;;;;;8.32;73.72;101048.41;4995177;28;20101;-47
2022/02/15 10:59:02;;;;;;;10.95;4.15;;;;;;;8.35;77.08;101049.84;4995350;28;20057;-44
2022/02/15 11:01:32;;;;;;;12.18;4.75;;;;;;;8.60;78.50;101041.25;4995990;28;20121;-45
2022/02/15 11:04:01;;;;;;;13.88;3.88;;;;;;;8.52;72.55;101043.34;4996017;28;20142;-44
2022/02/15 11:06:32;;;;;;;14.85;4.88;;;;;;;8.80;81.93;101044.25;4994977;28;20054;-42
2022/02/15 11:09:05;;;;;;;11.27;3.67;;;;;;;8.73;73.81;101051.75;4978710;28;20074;-47
2022/02/15 11:12:04;;;;;;;15.13;4.40;;;;;;;8.84;76.16;101048.13;4978495;28;20054;-47
2022/02/15 11:14:32;;;;;;;12.57;4.65;;;;;;;9.14;75.43;101041.47;4978723;28;20054;-45
2022/02/15 11:17:00;;;;;;;12.85;4.07;;;;;;;8.91;73.38;101040.63;4995133;28;20050;-47
2022/02/15 11:19:36;;;;;;;18.75;6.03;;;;;;;8.91;79.27;101037.06;4995330;28;20073;-46
2022/02/15 11:22:10;;;;;;;12.15;4.45;;;;;;;8.70;74.13;101035.97;4978262;28;20066;-45
2022/02/15 11:24:40;;;;;;;11.50;4.40;;;;;;;8.63;74.84;101029.91;4995604;28;20409;-47
2022/02/15 11:27:19;;;;;;;16.77;5.20;;;;;;;9.03;89.05;101028.81;4977987;28;20112;-45
2022/02/15 11:29:55;;;;;;;13.70;4.05;;;;;;;9.49;75.33;101029.34;4977932;28;20039;-44
2022/02/15 11:32:29;;;;;;;9.32;3.25;;;;;;;9.16;71.84;101022.97;4995259;28;20093;-45
2022/02/15 11:34:57;;;;;;;12.27;3.55;;;;;;;9.02;72.14;101019.00;4977970;28;20105;-45
2022/02/15 11:37:28;;;;;;;7.55;2.90;;;;;;;8.84;70.76;101022.84;4980282;28;20070;-44
2022/02/15 11:39:59;;;;;;;12.93;4.65;;;;;;;8.79;74.26;101026.31;4995812;28;20046;-45
2022/02/15 11:42:27;;;;;;;8.57;3.45;;;;;;;8.77;75.85;101012.16;4977588;28;20053;-43
2022/02/15 11:44:55;;;;;;;8.63;3.08;;;;;;;8.70;70.15;101011.53;4978229;28;20073;-43
2022/02/15 11:47:32;;;;;;;10.55;3.35;;;;;;;8.83;74.85;101013.88;4995041;28;20050;-46